Schneifelwetter: Wetterstation Hallschlag, 537 m . NN
Wetterdaten: Sonntag, 11.11.2012
Datum Zeit Temp. A. Feuchte A. Luftdruck Regen Wind Richtung Richtung Sonnenschein T Regen Taupunkt Windchill
11.11.2012 00:01 8,4 C 97 % 1001 hPa 0,0 l/m 27,6 km/h (4 Bft) SW67.5 220 0 min 0 min 8,0 C -1,0 C
11.11.2012 00:16 8,4 C 97 % 1000 hPa 0,3 l/m 30,1 km/h (5 Bft) SW22.5 215 0 min 15 min 8,0 C -1,6 C
11.11.2012 00:31 8,2 C 97 % 1001 hPa 0,3 l/m 31,2 km/h (5 Bft) W-SW45 245 0 min 15 min 7,8 C -2,1 C
11.11.2012 00:46 8,0 C 97 % 1001 hPa 0,0 l/m 27,6 km/h (4 Bft) SW67.5 220 0 min 0 min 7,6 C -1,6 C
11.11.2012 01:01 7,8 C 97 % 1001 hPa 0,0 l/m 34,8 km/h (5 Bft) W45 260 0 min 0 min 7,4 C -3,5 C
11.11.2012 01:16 7,4 C 97 % 1002 hPa 0,0 l/m 31,8 km/h (5 Bft) W-SW45 255 0 min 0 min 7,0 C -3,4 C
11.11.2012 01:31 7,2 C 97 % 1002 hPa 0,0 l/m 16,7 km/h (3 Bft) W-SW22.5 250 0 min 0 min 6,8 C 1,0 C
11.11.2012 01:46 7,1 C 97 % 1002 hPa 0,6 l/m 18,0 km/h (3 Bft) W-SW45 250 0 min 15 min 6,7 C 0,3 C
11.11.2012 02:01 6,8 C 97 % 1002 hPa 0,0 l/m 30,5 km/h (5 Bft) W45 260 0 min 0 min 6,4 C -4,0 C
11.11.2012 02:16 6,6 C 97 % 1002 hPa 0,0 l/m 30,7 km/h (5 Bft) W-SW45 250 0 min 0 min 6,2 C -4,3 C
11.11.2012 02:31 6,2 C 97 % 1002 hPa 0,0 l/m 26,5 km/h (4 Bft) W-SW22.5 255 0 min 0 min 5,8 C -3,8 C
11.11.2012 02:45 5,6 C 96 % 1002 hPa 0,0 l/m 27,5 km/h (4 Bft) W-SW22.5 255 0 min 0 min 5,0 C -4,9 C
11.11.2012 03:00 5,4 C 97 % 1003 hPa 0,0 l/m 23,4 km/h (4 Bft) W-SW22.5 255 0 min 0 min 5,0 C -3,9 C
11.11.2012 03:15 5,4 C 97 % 1003 hPa 0,0 l/m 24,5 km/h (4 Bft) W22.5 260 0 min 0 min 5,0 C -4,2 C
11.11.2012 03:30 4,9 C 97 % 1004 hPa 0,0 l/m 22,3 km/h (4 Bft) W-SW22.5 250 0 min 0 min 4,5 C -4,2 C
11.11.2012 03:45 4,7 C 97 % 1004 hPa 0,0 l/m 16,1 km/h (3 Bft) W45 260 0 min 0 min 4,3 C -1,8 C
11.11.2012 04:00 4,7 C 97 % 1004 hPa 0,0 l/m 8,5 km/h (2 Bft) W-SW 250 0 min 0 min 4,3 C 2,9 C
11.11.2012 04:15 4,5 C 97 % 1004 hPa 0,0 l/m 8,5 km/h (2 Bft) W22.5 260 0 min 0 min 4,1 C 2,7 C
11.11.2012 04:30 4,4 C 97 % 1004 hPa 0,0 l/m 9,8 km/h (2 Bft) W-SW45 240 0 min 0 min 4,0 C 1,6 C
11.11.2012 04:45 4,4 C 97 % 1004 hPa 0,0 l/m 12,3 km/h (3 Bft) W-SW22.5 245 0 min 0 min 4,0 C -0,1 C
11.11.2012 05:00 4,5 C 97 % 1004 hPa 0,0 l/m 6,2 km/h (2 Bft) W-SW 245 0 min 0 min 4,1 C 4,5 C
11.11.2012 05:15 4,5 C 97 % 1005 hPa 0,0 l/m 9,6 km/h (2 Bft) SW22.5 225 0 min 0 min 4,1 C 1,8 C
11.11.2012 05:30 4,5 C 97 % 1005 hPa 0,0 l/m 12,6 km/h (3 Bft) SW22.5 220 0 min 0 min 4,1 C -0,2 C
11.11.2012 05:45 4,5 C 97 % 1005 hPa 0,0 l/m 7,7 km/h (2 Bft) SW22.5 230 0 min 0 min 4,1 C 3,3 C
11.11.2012 06:00 4,5 C 97 % 1005 hPa 0,0 l/m 15,0 km/h (3 Bft) S22.5 190 0 min 0 min 4,1 C -1,5 C
11.11.2012 06:15 4,5 C 97 % 1005 hPa 0,0 l/m 10,3 km/h (2 Bft) W-SW 255 0 min 0 min 4,1 C 1,3 C
11.11.2012 06:30 4,5 C 97 % 1005 hPa 0,0 l/m 4,9 km/h (1 Bft) W-SW 255 0 min 0 min 4,1 C 4,5 C
11.11.2012 06:45 4,4 C 97 % 1005 hPa 0,0 l/m 0,7 km/h (0 Bft) W-SW 255 0 min 0 min 4,0 C 4,4 C
11.11.2012 07:00 4,4 C 97 % 1006 hPa 0,0 l/m 0,0 km/h (0 Bft) W 265 0 min 0 min 4,0 C 4,4 C
11.11.2012 07:15 4,3 C 97 % 1006 hPa 0,0 l/m 0,0 km/h (0 Bft) W 265 0 min 0 min 3,9 C 4,3 C
11.11.2012 07:30 4,4 C 97 % 1006 hPa 0,0 l/m 0,0 km/h (0 Bft) W 265 0 min 0 min 4,0 C 4,4 C
11.11.2012 07:45 4,3 C 97 % 1007 hPa 0,0 l/m 0,0 km/h (0 Bft) W 265 0 min 0 min 3,9 C 4,3 C
11.11.2012 08:00 4,3 C 97 % 1007 hPa 0,0 l/m 0,0 km/h (0 Bft) W 265 0 min 0 min 3,9 C 4,3 C
11.11.2012 08:15 4,3 C 97 % 1007 hPa 0,0 l/m 1,0 km/h (0 Bft) W-SW 250 0 min 0 min 3,9 C 4,3 C
11.11.2012 08:30 4,5 C 97 % 1007 hPa 0,0 l/m 1,1 km/h (1 Bft) W-SW 250 0 min 0 min 4,1 C 4,5 C
11.11.2012 08:45 4,5 C 97 % 1007 hPa 0,0 l/m 0,0 km/h (0 Bft) W-SW 250 0 min 0 min 4,1 C 4,5 C
11.11.2012 09:00 4,6 C 97 % 1008 hPa 0,0 l/m 1,5 km/h (1 Bft) SW22.5 215 0 min 0 min 4,2 C 4,6 C
11.11.2012 09:15 4,9 C 98 % 1008 hPa 0,0 l/m 7,4 km/h (2 Bft) SW22.5 235 0 min 0 min 4,6 C 4,0 C
11.11.2012 09:30 5,1 C 97 % 1008 hPa 0,0 l/m 10,3 km/h (2 Bft) W-SW 245 0 min 0 min 4,7 C 2,0 C
11.11.2012 09:45 4,9 C 97 % 1008 hPa 0,0 l/m 9,9 km/h (2 Bft) W-SW 255 0 min 0 min 4,5 C 2,0 C
11.11.2012 10:00 4,8 C 96 % 1008 hPa 0,0 l/m 10,0 km/h (2 Bft) W-SW22.5 255 0 min 0 min 4,2 C 1,9 C
11.11.2012 10:15 5,4 C 96 % 1008 hPa 0,0 l/m 14,4 km/h (3 Bft) W-SW22.5 250 0 min 0 min 4,8 C -0,1 C
11.11.2012 10:30 6,1 C 96 % 1008 hPa 0,0 l/m 7,4 km/h (2 Bft) W-SW22.5 250 0 min 0 min 5,5 C 5,3 C
11.11.2012 10:45 5,9 C 95 % 1009 hPa 0,0 l/m 10,5 km/h (2 Bft) W22.5 270 0 min 0 min 5,2 C 2,7 C
11.11.2012 11:01 5,9 C 94 % 1009 hPa 0,0 l/m 10,2 km/h (2 Bft) W 275 0 min 0 min 5,0 C 2,9 C
11.11.2012 11:15 6,8 C 94 % 1009 hPa 0,0 l/m 16,4 km/h (3 Bft) W-SW22.5 250 0 min 0 min 5,9 C 0,6 C
11.11.2012 11:30 7,3 C 92 % 1009 hPa 0,0 l/m 9,6 km/h (2 Bft) W-SW22.5 250 0 min 0 min 6,1 C 4,9 C
11.11.2012 11:45 7,3 C 92 % 1009 hPa 0,0 l/m 10,3 km/h (2 Bft) W-SW22.5 245 0 min 0 min 6,1 C 4,4 C
11.11.2012 12:00 7,3 C 89 % 1009 hPa 0,0 l/m 6,4 km/h (2 Bft) W45 265 0 min 0 min 5,6 C 7,3 C
11.11.2012 12:15 7,1 C 88 % 1009 hPa 0,0 l/m 8,7 km/h (2 Bft) W22.5 270 0 min 0 min 5,2 C 5,3 C
11.11.2012 12:30 7,2 C 88 % 1009 hPa 0,0 l/m 10,9 km/h (2 Bft) W45 260 0 min 0 min 5,3 C 3,9 C
11.11.2012 12:45 7,3 C 88 % 1010 hPa 0,0 l/m 9,8 km/h (2 Bft) W-SW22.5 250 0 min 0 min 5,4 C 4,7 C
11.11.2012 13:00 7,3 C 86 % 1010 hPa 0,0 l/m 10,3 km/h (2 Bft) W22.5 270 0 min 0 min 5,1 C 4,4 C
11.11.2012 13:15 7,6 C 86 % 1010 hPa 0,0 l/m 12,1 km/h (2 Bft) W-SW22.5 245 0 min 0 min 5,4 C 3,7 C
11.11.2012 13:31 7,5 C 86 % 1010 hPa 0,0 l/m 11,3 km/h (2 Bft) W-SW22.5 240 0 min 0 min 5,3 C 4,0 C
11.11.2012 13:45 7,4 C 86 % 1010 hPa 0,0 l/m 11,7 km/h (2 Bft) SW45 220 0 min 0 min 5,2 C 3,7 C
11.11.2012 14:00 7,3 C 85 % 1010 hPa 0,0 l/m 12,6 km/h (3 Bft) W22.5 260 0 min 0 min 4,9 C 3,1 C
11.11.2012 14:15 7,6 C 85 % 1010 hPa 0,0 l/m 17,1 km/h (3 Bft) W-SW22.5 250 0 min 0 min 5,2 C 1,3 C
11.11.2012 14:30 8,1 C 84 % 1010 hPa 0,0 l/m 16,2 km/h (3 Bft) W-SW22.5 240 0 min 0 min 5,6 C 2,3 C
11.11.2012 14:45 7,9 C 78 % 1011 hPa 0,0 l/m 13,1 km/h (3 Bft) W-NW22.5 295 0 min 0 min 4,3 C 3,5 C
11.11.2012 15:01 7,6 C 80 % 1011 hPa 0,0 l/m 13,3 km/h (3 Bft) W45 280 0 min 0 min 4,4 C 3,1 C
11.11.2012 15:15 7,5 C 81 % 1011 hPa 0,0 l/m 9,3 km/h (2 Bft) W45 275 0 min 0 min 4,5 C 5,3 C
11.11.2012 15:30 7,0 C 80 % 1011 hPa 0,0 l/m 10,1 km/h (2 Bft) W-SW 255 0 min 0 min 3,8 C 4,2 C
11.11.2012 15:45 6,6 C 81 % 1011 hPa 0,0 l/m 9,0 km/h (2 Bft) W 260 0 min 0 min 3,6 C 4,5 C
11.11.2012 16:00 6,5 C 82 % 1012 hPa 0,0 l/m 13,4 km/h (3 Bft) W22.5 265 0 min 0 min 3,7 C 1,7 C
11.11.2012 16:15 6,2 C 83 % 1012 hPa 0,0 l/m 14,1 km/h (3 Bft) W-SW22.5 255 0 min 0 min 3,5 C 1,0 C
11.11.2012 16:31 5,3 C 84 % 1012 hPa 0,0 l/m 6,0 km/h (2 Bft) W-SW 245 0 min 0 min 2,8 C 5,3 C
11.11.2012 16:45 4,3 C 85 % 1012 hPa 0,0 l/m 0,0 km/h (0 Bft) W-SW 240 0 min 0 min 2,0 C 4,3 C
11.11.2012 17:00 3,6 C 86 % 1013 hPa 0,0 l/m 0,0 km/h (0 Bft) W-SW 245 0 min 0 min 1,5 C 3,6 C
11.11.2012 17:15 3,1 C 87 % 1013 hPa 0,0 l/m 0,0 km/h (0 Bft) W-SW 240 0 min 0 min 1,2 C 3,1 C
11.11.2012 17:30 2,4 C 88 % 1013 hPa 0,0 l/m 0,0 km/h (0 Bft) W-SW 245 0 min 0 min 0,6 C 2,4 C
11.11.2012 17:45 2,1 C 89 % 1013 hPa 0,0 l/m 0,0 km/h (0 Bft) W-SW 245 0 min 0 min 0,5 C 2,1 C
11.11.2012 18:01 1,9 C 90 % 1013 hPa 0,0 l/m 0,0 km/h (0 Bft) W-SW 245 0 min 0 min 0,4 C 1,9 C
11.11.2012 18:15 1,6 C 90 % 1014 hPa 0,0 l/m 0,0 km/h (0 Bft) W-SW 245 0 min 0 min 0,1 C 1,6 C
11.11.2012 18:30 1,2 C 91 % 1014 hPa 0,0 l/m 0,0 km/h (0 Bft) W-SW 245 0 min 0 min -0,1 C 1,2 C
11.11.2012 18:45 1,1 C 92 % 1014 hPa 0,0 l/m 0,0 km/h (0 Bft) W-SW 245 0 min 0 min -0,1 C 1,1 C
11.11.2012 19:00 1,0 C 92 % 1015 hPa 0,0 l/m 0,0 km/h (0 Bft) W-SW 245 0 min 0 min -0,2 C 1,0 C
11.11.2012 19:15 0,7 C 92 % 1015 hPa 0,0 l/m 0,0 km/h (0 Bft) W-SW 245 0 min 0 min -0,4 C 0,7 C
11.11.2012 19:31 0,3 C 92 % 1015 hPa 0,0 l/m 0,0 km/h (0 Bft) W-SW 245 0 min 0 min -0,8 C 0,3 C
11.11.2012 19:45 0,2 C 93 % 1015 hPa 0,0 l/m 0,0 km/h (0 Bft) W-SW 240 0 min 0 min -0,8 C 0,2 C
11.11.2012 20:00 -0,2 C 93 % 1015 hPa 0,0 l/m 0,0 km/h (0 Bft) W-SW 240 0 min 0 min -1,2 C -0,2 C
11.11.2012 20:15 -0,2 C 93 % 1015 hPa 0,0 l/m 0,0 km/h (0 Bft) W-SW 240 0 min 0 min -1,2 C -0,2 C
11.11.2012 20:30 -0,2 C 94 % 1016 hPa 0,0 l/m 0,0 km/h (0 Bft) W-SW 240 0 min 0 min -1,0 C -0,2 C
11.11.2012 20:45 0,0 C 95 % 1016 hPa 0,0 l/m 7,4 km/h (2 Bft) W-SW 245 0 min 0 min -0,7 C -1,0 C
11.11.2012 21:01 0,6 C 95 % 1016 hPa 0,0 l/m 6,7 km/h (2 Bft) W-SW 245 0 min 0 min -0,1 C 0,3 C
11.11.2012 21:15 1,2 C 96 % 1016 hPa 0,0 l/m 9,8 km/h (2 Bft) W-SW 245 0 min 0 min 0,6 C -2,0 C
11.11.2012 21:30 1,2 C 95 % 1016 hPa 0,0 l/m 6,5 km/h (2 Bft) W-SW 245 0 min 0 min 0,5 C 1,1 C
11.11.2012 21:45 1,6 C 96 % 1016 hPa 0,0 l/m 4,6 km/h (1 Bft) W-SW 245 0 min 0 min 1,0 C 1,6 C
11.11.2012 22:00 1,7 C 95 % 1017 hPa 0,0 l/m 5,2 km/h (1 Bft) W-SW 245 0 min 0 min 1,0 C 1,7 C
11.11.2012 22:15 1,2 C 95 % 1017 hPa 0,0 l/m 3,9 km/h (1 Bft) W-SW 245 0 min 0 min 0,5 C 1,2 C
11.11.2012 22:31 0,8 C 95 % 1017 hPa 0,0 l/m 9,2 km/h (2 Bft) W-SW22.5 250 0 min 0 min 0,1 C -1,9 C
11.11.2012 22:45 0,9 C 96 % 1017 hPa 0,0 l/m 12,4 km/h (3 Bft) W-SW22.5 255 0 min 0 min 0,3 C -4,2 C
11.11.2012 23:00 1,0 C 96 % 1017 hPa 0,0 l/m 7,9 km/h (2 Bft) W-SW 255 0 min 0 min 0,4 C -0,5 C
11.11.2012 23:15 1,2 C 96 % 1017 hPa 0,0 l/m 7,2 km/h (2 Bft) W 260 0 min 0 min 0,6 C 0,4 C
11.11.2012 23:30 1,5 C 97 % 1018 hPa 0,0 l/m 7,8 km/h (2 Bft) W 265 0 min 0 min 1,1 C 0,1 C
11.11.2012 23:45 1,8 C 97 % 1018 hPa 0,0 l/m 5,9 km/h (2 Bft) W-SW 255 0 min 0 min 1,4 C 1,8 C
_ Min-Zeit 20:00 14:45 00:16 - 07:00 - - - - 20:00 02:45
Minimum _ -0,2 C 78 % 1000 hPa - 0,0 km/h (0 Bft) - - - - -1,2 C -4,9 C
_ Max-Zeit 00:01 09:15 23:30 01:46 01:01 - - 00:01 00:16 00:01 12:00
Maximum _ 8,4 C 98 % 1018 hPa 0,6 l/m 34,8 km/h
W (5 Bft)
- - 0 min 15 min 8,0 C 7,3 C
Durchschnitt _ 4,5 C 93 % 1009 hPa #1,2 l/m 9,8 km/h (2 Bft) W-SW - #0 min. #45 min. 3,5 C 1,6 C